Time,TemperatureF,DewpointF,PressureIn,WindDirection,WindDirectionDegrees,WindSpeedMPH,WindSpeedGustMPH,Humidity,HourlyPrecipIn,Conditions,Clouds,dailyrainin,SolarRadiationWatts/m^2,SoftwareType,DateUTC
2013-02-05 00:01:00,20.0,13.0,-100.00,South,175,4.0,5.0,76,0.00,,,-99.99,0.000000,,2013-02-05 07:01:00,
2013-02-05 00:11:00,20.0,13.0,-100.00,South,176,4.0,4.0,76,0.00,,,-99.99,0.000000,,2013-02-05 07:11:00,
2013-02-05 00:22:00,19.0,13.0,-100.00,South,170,4.0,4.0,77,0.00,,,-99.99,0.000000,,2013-02-05 07:22:00,
2013-02-05 00:31:00,19.0,13.0,-100.00,SSW,192,4.0,4.0,78,0.00,,,-99.99,0.000000,,2013-02-05 07:31:00,
2013-02-05 00:41:00,18.0,13.0,-100.00,South,170,3.0,4.0,79,0.00,,,-99.99,0.000000,,2013-02-05 07:41:00,
2013-02-05 00:51:00,19.0,13.0,-100.00,South,173,4.0,5.0,78,0.00,,,-99.99,0.000000,,2013-02-05 07:51:00,
2013-02-05 01:01:00,20.0,13.0,-100.00,South,170,5.0,6.0,75,0.00,,,-99.99,0.000000,,2013-02-05 08:01:00,
2013-02-05 01:11:00,20.0,13.0,-100.00,South,171,4.0,6.0,75,0.00,,,-99.99,0.000000,,2013-02-05 08:11:00,
2013-02-05 01:21:00,20.0,13.0,-100.00,South,171,4.0,6.0,75,0.00,,,-99.99,0.000000,,2013-02-05 08:21:00,
2013-02-05 01:31:00,19.0,13.0,-100.00,SSW,198,3.0,3.0,79,0.00,,,-99.99,0.000000,,2013-02-05 08:31:00,
2013-02-05 01:41:00,20.0,14.0,-100.00,SSE,162,4.0,5.0,77,0.00,,,-99.99,0.000000,,2013-02-05 08:41:00,
2013-02-05 01:50:00,21.0,14.0,-100.00,South,169,3.0,5.0,73,0.00,,,-99.99,0.000000,,2013-02-05 08:50:00,
2013-02-05 01:52:00,20.0,13.0,-100.00,SSE,161,5.0,6.0,74,0.00,,,-99.99,0.000000,,2013-02-05 08:52:00,
2013-02-05 02:02:00,21.0,14.0,-100.00,South,171,5.0,6.0,73,0.00,,,-99.99,0.000000,,2013-02-05 09:02:00,
2013-02-05 02:11:00,21.0,14.0,-100.00,South,169,3.0,5.0,73,0.00,,,-99.99,0.000000,,2013-02-05 09:11:00,
2013-02-05 02:21:00,21.0,14.0,-100.00,South,169,3.0,5.0,73,0.00,,,-99.99,0.000000,,2013-02-05 09:21:00,
2013-02-05 02:31:00,21.0,14.0,-100.00,South,169,3.0,5.0,73,0.00,,,-99.99,0.000000,,2013-02-05 09:31:00,
2013-02-05 02:42:00,21.0,14.0,-100.00,South,169,3.0,5.0,73,0.00,,,-99.99,0.000000,,2013-02-05 09:42:00,
2013-02-05 03:22:00,19.0,13.0,-100.00,South,185,3.0,4.0,76,0.00,,,-99.99,0.000000,,2013-02-05 10:22:00,
2013-02-05 03:32:00,20.0,13.0,-100.00,South,169,3.0,5.0,74,0.00,,,-99.99,0.000000,,2013-02-05 10:32:00,
2013-02-05 03:42:00,19.0,13.0,-100.00,WSW,237,2.0,3.0,79,0.00,,,-99.99,0.000000,,2013-02-05 10:42:00,
2013-02-05 03:52:00,19.0,15.0,-100.00,SW,219,2.0,4.0,85,0.00,,,-99.99,0.000000,,2013-02-05 10:52:00,
2013-02-05 04:01:00,20.0,13.0,-100.00,SSE,165,5.0,6.0,75,0.00,,,-99.99,0.000000,,2013-02-05 11:01:00,
2013-02-05 04:11:00,21.0,13.0,-100.00,South,179,4.0,5.0,73,0.00,,,-99.99,0.000000,,2013-02-05 11:11:00,
2013-02-05 04:21:00,20.0,14.0,-100.00,South,183,3.0,4.0,78,0.00,,,-99.99,0.000000,,2013-02-05 11:21:00,
2013-02-05 04:32:00,20.0,13.0,-100.00,SSE,154,4.0,5.0,77,0.00,,,-99.99,0.000000,,2013-02-05 11:32:00,
2013-02-05 04:41:00,19.0,14.0,-100.00,West,274,2.0,4.0,80,0.00,,,-99.99,0.000000,,2013-02-05 11:41:00,
2013-02-05 04:52:00,19.0,14.0,-100.00,West,271,1.0,3.0,80,0.00,,,-99.99,0.000000,,2013-02-05 11:52:00,
2013-02-05 05:01:00,19.0,14.0,-100.00,SE,143,3.0,4.0,78,0.00,,,-99.99,0.000000,,2013-02-05 12:01:00,
2013-02-05 05:12:00,19.0,13.0,-100.00,South,177,3.0,5.0,79,0.00,,,-99.99,0.000000,,2013-02-05 12:12:00,
2013-02-05 05:21:00,19.0,12.0,-100.00,SSE,167,4.0,7.0,75,0.00,,,-99.99,0.000000,,2013-02-05 12:21:00,
2013-02-05 05:31:00,20.0,13.0,-100.00,South,169,5.0,7.0,74,0.00,,,-99.99,0.000000,,2013-02-05 12:31:00,
2013-02-05 05:41:00,20.0,14.0,-100.00,WNW,283,2.0,3.0,78,0.00,,,-99.99,0.000000,,2013-02-05 12:41:00,
2013-02-05 05:51:00,20.0,14.0,-100.00,SSW,201,3.0,4.0,78,0.00,,,-99.99,0.000000,,2013-02-05 12:51:00,
2013-02-05 06:01:00,19.0,13.0,-100.00,SSW,195,1.0,4.0,79,0.00,,,-99.99,0.000000,,2013-02-05 13:01:00,
2013-02-05 06:11:00,20.0,15.0,-100.00,South,186,3.0,4.0,82,0.00,,,-99.99,0.000000,,2013-02-05 13:11:00,
2013-02-05 06:21:00,20.0,14.0,-100.00,SE,135,4.0,4.0,77,0.00,,,-99.99,0.000000,,2013-02-05 13:21:00,
2013-02-05 06:31:00,20.0,14.0,-100.00,SSE,160,4.0,5.0,76,0.00,,,-99.99,0.000000,,2013-02-05 13:31:00,
2013-02-05 06:41:00,21.0,14.0,-100.00,South,176,5.0,6.0,75,0.00,,,-99.99,0.000000,,2013-02-05 13:41:00,
2013-02-05 06:50:00,23.0,15.0,-100.00,South,184,3.0,5.0,69,0.00,,,-99.99,0.000000,,2013-02-05 13:50:00,
2013-02-05 06:51:00,22.0,14.0,-100.00,SSE,157,5.0,6.0,71,0.00,,,-99.99,0.000000,,2013-02-05 13:51:00,
2013-02-05 07:01:00,22.0,14.0,-100.00,SSE,164,4.0,5.0,71,0.00,,,-99.99,0.000000,,2013-02-05 14:01:00,
2013-02-05 07:12:00,23.0,15.0,-100.00,South,184,3.0,5.0,69,0.00,,,-99.99,0.000000,,2013-02-05 14:12:00,
2013-02-05 07:21:00,23.0,15.0,-100.00,South,184,3.0,5.0,69,0.00,,,-99.99,0.000000,,2013-02-05 14:21:00,
2013-02-05 07:31:00,23.0,15.0,-100.00,South,184,3.0,5.0,69,0.00,,,-99.99,0.000000,,2013-02-05 14:31:00,
2013-02-05 07:41:00,23.0,15.0,-100.00,South,184,3.0,5.0,69,0.00,,,-99.99,0.000000,,2013-02-05 14:41:00,
2013-02-05 08:22:00,20.0,14.0,-100.00,South,175,5.0,5.0,78,0.00,,,-99.99,20.000000,,2013-02-05 15:22:00,
2013-02-05 08:32:00,18.0,14.0,-100.00,WSW,252,3.0,4.0,83,0.00,,,-99.99,22.000000,,2013-02-05 15:32:00,
2013-02-05 08:42:00,18.0,14.0,-100.00,SW,233,2.0,4.0,85,0.00,,,-99.99,21.000000,,2013-02-05 15:42:00,
2013-02-05 08:52:00,19.0,15.0,-100.00,SSW,196,3.0,4.0,86,0.00,,,-99.99,21.000000,,2013-02-05 15:52:00,
2013-02-05 09:01:00,19.0,13.0,-100.00,ESE,123,2.0,3.0,78,0.00,,,-99.99,23.000000,,2013-02-05 16:01:00,
2013-02-05 09:11:00,20.0,16.0,-100.00,West,268,3.0,4.0,85,0.00,,,-99.99,154.000000,,2013-02-05 16:11:00,
2013-02-05 09:21:00,24.0,17.0,-100.00,SSE,167,2.0,4.0,74,0.00,,,-99.99,210.000000,,2013-02-05 16:21:00,
2013-02-05 09:32:00,25.0,15.0,-100.00,SSE,160,3.0,5.0,66,0.00,,,-99.99,241.000000,,2013-02-05 16:32:00,
2013-02-05 09:41:00,27.0,16.0,-100.00,SW,217,2.0,4.0,64,0.00,,,-99.99,272.000000,,2013-02-05 16:41:00,
2013-02-05 09:51:00,29.0,16.0,-100.00,SSE,148,1.0,3.0,58,0.00,,,-99.99,305.000000,,2013-02-05 16:51:00,
2013-02-05 10:01:00,30.0,16.0,-100.00,West,264,1.0,2.0,56,0.00,,,-99.99,329.000000,,2013-02-05 17:01:00,
2013-02-05 10:11:00,29.0,17.0,-100.00,SSW,200,2.0,3.0,59,0.00,,,-99.99,286.000000,,2013-02-05 17:11:00,
2013-02-05 10:21:00,32.0,17.0,-100.00,East,84,1.0,2.0,53,0.00,,,-99.99,291.000000,,2013-02-05 17:21:00,
2013-02-05 10:32:00,32.0,17.0,-100.00,SSE,150,2.0,3.0,54,0.00,,,-99.99,382.000000,,2013-02-05 17:32:00,
2013-02-05 10:41:00,32.0,18.0,-100.00,East,101,2.0,4.0,56,0.00,,,-99.99,402.000000,,2013-02-05 17:41:00,
2013-02-05 10:52:00,31.0,14.0,-100.00,West,277,2.0,4.0,48,0.00,,,-99.99,422.000000,,2013-02-05 17:52:00,
2013-02-05 18:01:00,-39.0,-52.0,-100.00,SSE,148,4.0,6.0,48,0.00,,,-99.99,5.000000,,2013-02-06 01:01:00,
2013-02-05 21:11:00,31.0,25.0,-100.00,SE,146,5.0,8.0,78,0.00,,,-99.99,0.000000,,2013-02-06 04:11:00,
2013-02-05 21:21:00,32.0,25.0,-100.00,South,173,3.0,5.0,74,0.00,,,-99.99,0.000000,,2013-02-06 04:21:00,
2013-02-05 21:31:00,33.0,24.0,-100.00,South,171,4.0,5.0,70,0.00,,,-99.99,0.000000,,2013-02-06 04:31:00,
2013-02-05 21:41:00,33.0,23.0,-100.00,South,171,2.0,5.0,67,0.00,,,-99.99,0.000000,,2013-02-06 04:41:00,
2013-02-05 21:51:00,32.0,24.0,-100.00,SW,234,3.0,6.0,70,0.00,,,-99.99,0.000000,,2013-02-06 04:51:00,
2013-02-05 22:01:00,32.0,24.0,-100.00,ENE,75,3.0,4.0,72,0.00,,,-99.99,0.000000,,2013-02-06 05:01:00,
2013-02-05 22:11:00,31.0,24.0,-100.00,SE,143,4.0,6.0,75,0.00,,,-99.99,0.000000,,2013-02-06 05:11:00,
2013-02-05 22:22:00,31.0,24.0,-100.00,WSW,243,3.0,6.0,73,0.00,,,-99.99,0.000000,,2013-02-06 05:22:00,
2013-02-05 22:31:00,31.0,24.0,-100.00,East,90,5.0,7.0,76,0.00,,,-99.99,0.000000,,2013-02-06 05:31:00,
2013-02-05 22:41:00,31.0,25.0,-100.00,SE,125,4.0,7.0,80,0.00,,,-99.99,0.000000,,2013-02-06 05:41:00,
2013-02-05 22:52:00,32.0,25.0,-100.00,SSW,196,3.0,4.0,75,0.00,,,-99.99,0.000000,,2013-02-06 05:52:00,
2013-02-05 23:01:00,33.0,25.0,-100.00,SE,143,2.0,4.0,73,0.00,,,-99.99,0.000000,,2013-02-06 06:01:00,
2013-02-05 23:11:00,32.0,24.0,-100.00,SSE,155,3.0,4.0,74,0.00,,,-99.99,0.000000,,2013-02-06 06:11:00,
2013-02-05 23:21:00,32.0,24.0,-100.00,SW,229,1.0,3.0,73,0.00,,,-99.99,0.000000,,2013-02-06 06:21:00,
2013-02-05 23:31:00,32.0,24.0,-100.00,South,183,1.0,3.0,71,0.00,,,-99.99,0.000000,,2013-02-06 06:31:00,
2013-02-05 23:41:00,33.0,24.0,-100.00,SSW,202,0.0,3.0,69,0.00,,,-99.99,0.000000,,2013-02-06 06:41:00,
2013-02-05 23:50:00,31.0,25.0,-100.00,SSE,153,0.0,1.0,76,0.00,,,-99.99,0.000000,,2013-02-06 06:50:00,
2013-02-05 23:51:00,32.0,24.0,-100.00,South,189,1.0,3.0,71,0.00,,,-99.99,0.000000,,2013-02-06 06:51:00,